sensor_id;sensor_type;location;lat;lon;timestamp;pressure;altitude;pressure_sealevel;temperature;humidity
46303;BME280;32029;51.358;5.628;2023-03-22T00:02:16;100763.19;;;13.37;82.94
46303;BME280;32029;51.358;5.628;2023-03-22T00:04:45;100776.78;;;13.45;83.04
46303;BME280;32029;51.358;5.628;2023-03-22T00:07:15;100772.34;;;13.44;83.63
46303;BME280;32029;51.358;5.628;2023-03-22T00:09:49;100750.06;;;13.39;83.32
46303;BME280;32029;51.358;5.628;2023-03-22T00:12:19;100747.94;;;13.34;83.28
46303;BME280;32029;51.358;5.628;2023-03-22T00:14:47;100736.47;;;13.24;83.46
46303;BME280;32029;51.358;5.628;2023-03-22T00:17:17;100749.19;;;13.32;83.67
46303;BME280;32029;51.358;5.628;2023-03-22T00:19:45;100754.31;;;13.35;83.76
46303;BME280;32029;51.358;5.628;2023-03-22T00:22:14;100744.72;;;13.24;83.78
46303;BME280;32029;51.358;5.628;2023-03-22T00:24:43;100749.38;;;13.23;84.06
46303;BME280;32029;51.358;5.628;2023-03-22T00:27:13;100747.06;;;13.27;84.30
46303;BME280;32029;51.358;5.628;2023-03-22T00:29:40;100742.41;;;13.28;84.75
46303;BME280;32029;51.358;5.628;2023-03-22T00:32:09;100738.59;;;13.29;84.82
46303;BME280;32029;51.358;5.628;2023-03-22T00:34:38;100733.91;;;13.29;84.94
46303;BME280;32029;51.358;5.628;2023-03-22T00:37:07;100732.66;;;13.32;85.39
46303;BME280;32029;51.358;5.628;2023-03-22T00:39:36;100709.50;;;13.19;85.22
46303;BME280;32029;51.358;5.628;2023-03-22T00:42:10;100730.13;;;13.37;85.40
46303;BME280;32029;51.358;5.628;2023-03-22T00:44:41;100690.00;;;13.21;85.55
46303;BME280;32029;51.358;5.628;2023-03-22T00:47:08;100715.94;;;13.40;85.13
46303;BME280;32029;51.358;5.628;2023-03-22T00:49:39;100701.25;;;13.26;85.21
46303;BME280;32029;51.358;5.628;2023-03-22T00:52:07;100705.34;;;13.30;85.24
46303;BME280;32029;51.358;5.628;2023-03-22T00:54:37;100679.38;;;13.11;85.12
46303;BME280;32029;51.358;5.628;2023-03-22T00:57:06;100697.41;;;13.20;85.46
46303;BME280;32029;51.358;5.628;2023-03-22T00:59:41;100712.03;;;13.21;85.54
46303;BME280;32029;51.358;5.628;2023-03-22T01:02:12;100708.91;;;13.24;85.84
46303;BME280;32029;51.358;5.628;2023-03-22T01:04:42;100708.22;;;13.22;85.82
46303;BME280;32029;51.358;5.628;2023-03-22T01:07:15;100663.47;;;13.00;85.71
46303;BME280;32029;51.358;5.628;2023-03-22T01:09:44;100692.31;;;13.17;85.77
46303;BME280;32029;51.358;5.628;2023-03-22T01:12:14;100660.47;;;13.02;86.33
46303;BME280;32029;51.358;5.628;2023-03-22T01:14:43;100661.09;;;12.97;86.18
46303;BME280;32029;51.358;5.628;2023-03-22T01:17:12;100685.53;;;13.07;86.61
46303;BME280;32029;51.358;5.628;2023-03-22T01:19:42;100657.06;;;12.93;86.31
46303;BME280;32029;51.358;5.628;2023-03-22T01:22:10;100667.69;;;13.03;86.42
46303;BME280;32029;51.358;5.628;2023-03-22T01:24:37;100675.09;;;13.02;86.48
46303;BME280;32029;51.358;5.628;2023-03-22T01:27:07;100667.28;;;12.99;86.54
46303;BME280;32029;51.358;5.628;2023-03-22T01:29:37;100666.41;;;12.98;86.76
46303;BME280;32029;51.358;5.628;2023-03-22T01:32:06;100661.09;;;12.97;87.06
46303;BME280;32029;51.358;5.628;2023-03-22T01:34:36;100651.16;;;12.96;86.96
46303;BME280;32029;51.358;5.628;2023-03-22T01:37:06;100644.78;;;12.89;87.14
46303;BME280;32029;51.358;5.628;2023-03-22T01:39:35;100625.69;;;12.81;87.46
46303;BME280;32029;51.358;5.628;2023-03-22T01:42:04;100587.09;;;12.61;87.10
46303;BME280;32029;51.358;5.628;2023-03-22T01:44:34;100635.00;;;12.86;87.47
46303;BME280;32029;51.358;5.628;2023-03-22T01:47:04;100595.13;;;12.62;87.88
46303;BME280;32029;51.358;5.628;2023-03-22T01:49:35;100602.34;;;12.70;87.83
46303;BME280;32029;51.358;5.628;2023-03-22T01:52:09;100613.38;;;12.83;87.99
46303;BME280;32029;51.358;5.628;2023-03-22T01:54:44;100606.19;;;12.82;87.89
46303;BME280;32029;51.358;5.628;2023-03-22T01:57:14;100576.91;;;12.61;88.06
46303;BME280;32029;51.358;5.628;2023-03-22T01:59:45;100607.25;;;12.81;88.01
46303;BME280;32029;51.358;5.628;2023-03-22T02:02:15;100612.75;;;12.81;88.17
46303;BME280;32029;51.358;5.628;2023-03-22T02:04:48;100610.84;;;12.82;88.15
46303;BME280;32029;51.358;5.628;2023-03-22T02:07:20;100560.38;;;12.55;88.14
46303;BME280;32029;51.358;5.628;2023-03-22T02:09:54;100597.09;;;12.82;88.15
46303;BME280;32029;51.358;5.628;2023-03-22T02:12:41;100593.50;;;12.81;88.23
46303;BME280;32029;51.358;5.628;2023-03-22T02:15:50;100580.56;;;12.82;88.30
46303;BME280;32029;51.358;5.628;2023-03-22T02:18:50;100585.66;;;12.85;88.63
46303;BME280;32029;51.358;5.628;2023-03-22T02:21:34;100584.16;;;12.82;88.46
46303;BME280;32029;51.358;5.628;2023-03-22T02:24:49;100570.22;;;12.84;88.09
46303;BME280;32029;51.358;5.628;2023-03-22T02:33:35;100571.06;;;12.84;88.13
46303;BME280;32029;51.358;5.628;2023-03-22T02:47:00;100555.31;;;12.71;87.93
46303;BME280;32029;51.358;5.628;2023-03-22T02:49:44;100558.75;;;12.73;87.98
46303;BME280;32029;51.358;5.628;2023-03-22T03:00:30;100560.00;;;12.78;87.94
46303;BME280;32029;51.358;5.628;2023-03-22T03:03:05;100534.78;;;12.61;88.00
46303;BME280;32029;51.358;5.628;2023-03-22T03:05:38;100536.28;;;12.70;87.87
46303;BME280;32029;51.358;5.628;2023-03-22T03:08:09;100553.00;;;12.75;87.83
46303;BME280;32029;51.358;5.628;2023-03-22T03:10:37;100550.06;;;12.77;87.77
46303;BME280;32029;51.358;5.628;2023-03-22T03:13:11;100542.63;;;12.70;87.93
46303;BME280;32029;51.358;5.628;2023-03-22T03:15:40;100531.22;;;12.73;87.77
46303;BME280;32029;51.358;5.628;2023-03-22T03:24:10;100539.69;;;12.79;87.26
46303;BME280;32029;51.358;5.628;2023-03-22T03:31:54;100530.78;;;12.70;87.31
46303;BME280;32029;51.358;5.628;2023-03-22T03:34:28;100535.25;;;12.78;87.33
46303;BME280;32029;51.358;5.628;2023-03-22T03:37:01;100538.66;;;12.80;87.01
46303;BME280;32029;51.358;5.628;2023-03-22T03:39:34;100523.16;;;12.79;87.20
46303;BME280;32029;51.358;5.628;2023-03-22T03:42:05;100500.06;;;12.66;87.01
46303;BME280;32029;51.358;5.628;2023-03-22T03:44:37;100507.50;;;12.72;87.00
46303;BME280;32029;51.358;5.628;2023-03-22T03:47:06;100531.22;;;12.87;86.87
46303;BME280;32029;51.358;5.628;2023-03-22T03:49:34;100527.00;;;12.91;86.76
46303;BME280;32029;51.358;5.628;2023-03-22T03:52:03;100535.06;;;12.92;86.57
46303;BME280;32029;51.358;5.628;2023-03-22T03:54:30;100517.69;;;12.85;86.38
46303;BME280;32029;51.358;5.628;2023-03-22T03:56:57;100531.66;;;12.90;86.38
46303;BME280;32029;51.358;5.628;2023-03-22T03:59:23;100517.66;;;12.79;86.18
46303;BME280;32029;51.358;5.628;2023-03-22T04:01:50;100543.09;;;12.87;86.22
46303;BME280;32029;51.358;5.628;2023-03-22T04:04:20;100537.59;;;12.87;86.16
46303;BME280;32029;51.358;5.628;2023-03-22T04:06:54;100534.41;;;12.84;86.47
46303;BME280;32029;51.358;5.628;2023-03-22T04:09:24;100524.44;;;12.76;86.14
46303;BME280;32029;51.358;5.628;2023-03-22T04:11:55;100525.28;;;12.77;85.93
46303;BME280;32029;51.358;5.628;2023-03-22T04:14:23;100520.59;;;12.70;86.38
46303;BME280;32029;51.358;5.628;2023-03-22T04:16:51;100504.94;;;12.64;86.00
46303;BME280;32029;51.358;5.628;2023-03-22T04:19:18;100506.41;;;12.60;86.42
46303;BME280;32029;51.358;5.628;2023-03-22T04:21:44;100516.78;;;12.58;86.40
46303;BME280;32029;51.358;5.628;2023-03-22T04:24:12;100525.91;;;12.65;86.45
46303;BME280;32029;51.358;5.628;2023-03-22T04:26:39;100526.09;;;12.57;86.29
46303;BME280;32029;51.358;5.628;2023-03-22T04:29:06;100521.03;;;12.61;86.58
46303;BME280;32029;51.358;5.628;2023-03-22T04:31:33;100511.25;;;12.45;86.44
46303;BME280;32029;51.358;5.628;2023-03-22T04:34:02;100516.16;;;12.56;86.48
46303;BME280;32029;51.358;5.628;2023-03-22T04:36:33;100516.16;;;12.56;86.59
46303;BME280;32029;51.358;5.628;2023-03-22T04:39:03;100506.56;;;12.52;86.46
46303;BME280;32029;51.358;5.628;2023-03-22T04:41:32;100507.03;;;12.49;86.28
46303;BME280;32029;51.358;5.628;2023-03-22T04:43:59;100515.91;;;12.51;86.51
46303;BME280;32029;51.358;5.628;2023-03-22T04:46:30;100525.44;;;12.48;86.25
46303;BME280;32029;51.358;5.628;2023-03-22T04:48:57;100513.78;;;12.46;86.63
46303;BME280;32029;51.358;5.628;2023-03-22T04:51:25;100514.00;;;12.45;86.34
46303;BME280;32029;51.358;5.628;2023-03-22T04:53:52;100518.44;;;12.46;86.38
46303;BME280;32029;51.358;5.628;2023-03-22T04:56:19;100516.31;;;12.48;86.39
46303;BME280;32029;51.358;5.628;2023-03-22T04:58:46;100480.28;;;12.36;85.89
46303;BME280;32029;51.358;5.628;2023-03-22T05:01:16;100512.75;;;12.54;85.80
46303;BME280;32029;51.358;5.628;2023-03-22T05:03:44;100498.94;;;12.47;85.39
46303;BME280;32029;51.358;5.628;2023-03-22T05:06:14;100508.28;;;12.60;85.66
46303;BME280;32029;51.358;5.628;2023-03-22T05:08:41;100494.13;;;12.56;85.39
46303;BME280;32029;51.358;5.628;2023-03-22T05:11:13;100493.06;;;12.57;85.05
46303;BME280;32029;51.358;5.628;2023-03-22T05:13:40;100491.13;;;12.51;84.98
46303;BME280;32029;51.358;5.628;2023-03-22T05:16:08;100506.41;;;12.60;84.95
46303;BME280;32029;51.358;5.628;2023-03-22T05:18:35;100465.94;;;12.41;85.12
46303;BME280;32029;51.358;5.628;2023-03-22T05:21:03;100492.41;;;12.55;84.94
46303;BME280;32029;51.358;5.628;2023-03-22T05:23:32;100501.13;;;12.65;84.96
46303;BME280;32029;51.358;5.628;2023-03-22T05:25:58;100503.22;;;12.63;85.03
46303;BME280;32029;51.358;5.628;2023-03-22T05:28:27;100504.94;;;12.64;85.20
46303;BME280;32029;51.358;5.628;2023-03-22T05:30:54;100482.06;;;12.57;84.91
46303;BME280;32029;51.358;5.628;2023-03-22T05:33:20;100487.16;;;12.60;84.91
46303;BME280;32029;51.358;5.628;2023-03-22T05:35:48;100483.94;;;12.63;84.95
46303;BME280;32029;51.358;5.628;2023-03-22T05:38:18;100483.75;;;12.71;85.07
46303;BME280;32029;51.358;5.628;2023-03-22T05:40:44;100461.94;;;12.63;84.82
46303;BME280;32029;51.358;5.628;2023-03-22T05:43:11;100491.19;;;12.78;84.81
46303;BME280;32029;51.358;5.628;2023-03-22T05:45:38;100496.91;;;12.83;84.81
46303;BME280;32029;51.358;5.628;2023-03-22T05:48:05;100481.66;;;12.80;84.80
46303;BME280;32029;51.358;5.628;2023-03-22T05:50:33;100494.16;;;12.89;84.73
46303;BME280;32029;51.358;5.628;2023-03-22T05:52:59;100492.06;;;12.91;84.68
46303;BME280;32029;51.358;5.628;2023-03-22T05:55:26;100499.03;;;12.94;84.89
46303;BME280;32029;51.358;5.628;2023-03-22T05:57:57;100488.22;;;12.86;84.47
46303;BME280;32029;51.358;5.628;2023-03-22T06:00:24;100502.44;;;12.89;84.75
46303;BME280;32029;51.358;5.628;2023-03-22T06:02:51;100474.03;;;12.75;84.52
46303;BME280;32029;51.358;5.628;2023-03-22T06:05:22;100474.88;;;12.76;84.49
46303;BME280;32029;51.358;5.628;2023-03-22T06:07:48;100507.09;;;12.89;84.73
46303;BME280;32029;51.358;5.628;2023-03-22T06:10:15;100473.63;;;12.72;84.65
46303;BME280;32029;51.358;5.628;2023-03-22T06:12:43;100507.31;;;12.87;84.62
46303;BME280;32029;51.358;5.628;2023-03-22T06:15:10;100493.50;;;12.74;84.56
46303;BME280;32029;51.358;5.628;2023-03-22T06:17:37;100480.59;;;12.68;84.96
46303;BME280;32029;51.358;5.628;2023-03-22T06:20:04;100485.06;;;12.75;85.06
46303;BME280;32029;51.358;5.628;2023-03-22T06:22:36;100499.03;;;12.81;85.01
46303;BME280;32029;51.358;5.628;2023-03-22T06:25:04;100481.44;;;12.82;84.86
46303;BME280;32029;51.358;5.628;2023-03-22T06:27:32;100481.66;;;12.87;84.61
46303;BME280;32029;51.358;5.628;2023-03-22T06:29:59;100492.25;;;12.96;84.15
46303;BME280;32029;51.358;5.628;2023-03-22T06:32:27;100463.03;;;12.82;83.96
46303;BME280;32029;51.358;5.628;2023-03-22T06:34:54;100491.00;;;12.99;84.23
46303;BME280;32029;51.358;5.628;2023-03-22T06:37:23;100486.78;;;13.03;84.18
46303;BME280;32029;51.358;5.628;2023-03-22T06:39:50;100455.81;;;12.94;83.46
46303;BME280;32029;51.358;5.628;2023-03-22T06:42:17;100476.59;;;12.97;83.55
46303;BME280;32029;51.358;5.628;2023-03-22T06:44:44;100492.69;;;13.00;83.25
46303;BME280;32029;51.358;5.628;2023-03-22T06:47:11;100506.03;;;12.96;83.63
46303;BME280;32029;51.358;5.628;2023-03-22T06:49:38;100497.78;;;12.96;83.67
46303;BME280;32029;51.358;5.628;2023-03-22T06:52:05;100494.16;;;13.03;83.70
46303;BME280;32029;51.358;5.628;2023-03-22T06:54:32;100501.16;;;13.05;83.58
46303;BME280;32029;51.358;5.628;2023-03-22T06:56:59;100504.13;;;13.10;83.45
46303;BME280;32029;51.358;5.628;2023-03-22T06:59:26;100468.97;;;12.92;83.28
46303;BME280;32029;51.358;5.628;2023-03-22T07:01:53;100481.69;;;13.07;82.75
46303;BME280;32029;51.358;5.628;2023-03-22T07:04:20;100495.44;;;13.13;82.53
46303;BME280;32029;51.358;5.628;2023-03-22T07:06:47;100510.91;;;13.21;82.65
46303;BME280;32029;51.358;5.628;2023-03-22T07:09:13;100482.75;;;13.12;82.91
46303;BME280;32029;51.358;5.628;2023-03-22T07:11:40;100493.34;;;13.29;82.58
46303;BME280;32029;51.358;5.628;2023-03-22T07:14:07;100477.00;;;13.34;82.93
46303;BME280;32029;51.358;5.628;2023-03-22T07:16:34;100464.31;;;13.39;81.70
46303;BME280;32029;51.358;5.628;2023-03-22T07:19:01;100475.72;;;13.56;81.37
46303;BME280;32029;51.358;5.628;2023-03-22T07:21:29;100505.38;;;13.74;80.47
46303;BME280;32029;51.358;5.628;2023-03-22T07:23:55;100486.72;;;13.69;80.65
46303;BME280;32029;51.358;5.628;2023-03-22T07:26:23;100490.09;;;13.71;80.54
46303;BME280;32029;51.358;5.628;2023-03-22T07:28:52;100496.44;;;13.79;80.23
46303;BME280;32029;51.358;5.628;2023-03-22T07:31:19;100507.66;;;13.84;80.23
46303;BME280;32029;51.358;5.628;2023-03-22T07:33:45;100493.03;;;13.83;80.19
46303;BME280;32029;51.358;5.628;2023-03-22T07:36:13;100502.75;;;13.92;79.57
46303;BME280;32029;51.358;5.628;2023-03-22T07:38:40;100505.72;;;13.97;79.41
46303;BME280;32029;51.358;5.628;2023-03-22T07:41:07;100450.25;;;13.67;79.07
46303;BME280;32029;51.358;5.628;2023-03-22T07:43:34;100479.44;;;13.88;79.07
46303;BME280;32029;51.358;5.628;2023-03-22T07:46:01;100468.81;;;13.92;78.97
46303;BME280;32029;51.358;5.628;2023-03-22T07:48:27;100489.53;;;14.08;79.29
46303;BME280;32029;51.358;5.628;2023-03-22T07:50:56;100489.31;;;14.16;78.14
46303;BME280;32029;51.358;5.628;2023-03-22T07:53:24;100503.72;;;14.25;77.45
46303;BME280;32029;51.358;5.628;2023-03-22T07:55:51;100441.91;;;13.81;77.61
46303;BME280;32029;51.358;5.628;2023-03-22T07:58:18;100511.59;;;14.21;77.40
46303;BME280;32029;51.358;5.628;2023-03-22T08:00:44;100496.72;;;14.15;77.10
46303;BME280;32029;51.358;5.628;2023-03-22T08:03:11;100480.69;;;13.99;77.36
46303;BME280;32029;51.358;5.628;2023-03-22T08:05:42;100501.88;;;14.05;77.36
46303;BME280;32029;51.358;5.628;2023-03-22T08:08:09;100462.44;;;13.98;77.89
46303;BME280;32029;51.358;5.628;2023-03-22T08:10:36;100493.69;;;14.30;77.05
46303;BME280;32029;51.358;5.628;2023-03-22T08:13:02;100494.50;;;14.44;76.34
46303;BME280;32029;51.358;5.628;2023-03-22T08:15:29;100495.72;;;14.55;76.01
46303;BME280;32029;51.358;5.628;2023-03-22T08:17:56;100473.88;;;14.53;76.18
46303;BME280;32029;51.358;5.628;2023-03-22T08:20:24;100490.69;;;14.77;74.88
46303;BME280;32029;51.358;5.628;2023-03-22T08:22:53;100479.66;;;14.77;74.38
46303;BME280;32029;51.358;5.628;2023-03-22T08:25:21;100493.03;;;14.80;73.95
46303;BME280;32029;51.358;5.628;2023-03-22T08:27:47;100497.47;;;14.81;72.88
46303;BME280;32029;51.358;5.628;2023-03-22T08:30:14;100504.53;;;14.70;72.78
46303;BME280;32029;51.358;5.628;2023-03-22T08:32:41;100515.00;;;14.61;73.43
46303;BME280;32029;51.358;5.628;2023-03-22T08:35:08;100447.44;;;14.26;73.24
46303;BME280;32029;51.358;5.628;2023-03-22T08:37:35;100495.72;;;14.55;72.87
46303;BME280;32029;51.358;5.628;2023-03-22T08:40:01;100507.13;;;14.65;73.42
46303;BME280;32029;51.358;5.628;2023-03-22T08:42:31;100488.88;;;14.64;72.60
46303;BME280;32029;51.358;5.628;2023-03-22T08:44:58;100483.97;;;14.66;72.60
46303;BME280;32029;51.358;5.628;2023-03-22T08:47:25;100488.38;;;14.74;71.90
46303;BME280;32029;51.358;5.628;2023-03-22T08:49:51;100499.69;;;14.97;71.26
46303;BME280;32029;51.358;5.628;2023-03-22T08:52:18;100477.69;;;14.84;71.04
46303;BME280;32029;51.358;5.628;2023-03-22T08:54:45;100513.19;;;15.12;72.38
46303;BME280;32029;51.358;5.628;2023-03-22T08:57:12;100463.88;;;15.09;70.69
46303;BME280;32029;51.358;5.628;2023-03-22T08:59:39;100490.19;;;15.18;70.85
46303;BME280;32029;51.358;5.628;2023-03-22T09:02:07;100475.69;;;15.23;70.46
46303;BME280;32029;51.358;5.628;2023-03-22T09:04:34;100458.66;;;15.26;70.67
46303;BME280;32029;51.358;5.628;2023-03-22T09:07:01;100496.19;;;15.58;69.44
46303;BME280;32029;51.358;5.628;2023-03-22T09:09:28;100490.50;;;15.53;68.97
46303;BME280;32029;51.358;5.628;2023-03-22T09:11:54;100471.66;;;15.43;68.99
46303;BME280;32029;51.358;5.628;2023-03-22T09:14:21;100487.72;;;15.53;69.20
46303;BME280;32029;51.358;5.628;2023-03-22T09:16:48;100457.63;;;15.45;69.52
46303;BME280;32029;51.358;5.628;2023-03-22T09:19:15;100463.56;;;15.67;69.05
46303;BME280;32029;51.358;5.628;2023-03-22T09:21:41;100443.78;;;15.63;68.54
46303;BME280;32029;51.358;5.628;2023-03-22T09:24:09;100493.69;;;15.93;67.79
46303;BME280;32029;51.358;5.628;2023-03-22T09:26:35;100459.44;;;15.76;66.88
46303;BME280;32029;51.358;5.628;2023-03-22T09:29:02;100449.16;;;15.58;67.48
46303;BME280;32029;51.358;5.628;2023-03-22T09:31:29;100466.56;;;15.65;68.58
46303;BME280;32029;51.358;5.628;2023-03-22T09:33:55;100457.22;;;15.60;68.19
46303;BME280;32029;51.358;5.628;2023-03-22T09:36:22;100452.63;;;15.54;70.00
46303;BME280;32029;51.358;5.628;2023-03-22T09:38:49;100469.94;;;15.86;68.51
46303;BME280;32029;51.358;5.628;2023-03-22T09:41:23;100469.03;;;15.92;68.36
46303;BME280;32029;51.358;5.628;2023-03-22T09:43:58;100448.91;;;16.03;67.03
46303;BME280;32029;51.358;5.628;2023-03-22T09:46:33;100465.84;;;16.07;66.44
46303;BME280;32029;51.358;5.628;2023-03-22T09:49:04;100468.88;;;16.05;67.07
46303;BME280;32029;51.358;5.628;2023-03-22T09:51:52;100464.09;;;16.12;66.78
46303;BME280;32029;51.358;5.628;2023-03-22T09:54:32;100470.84;;;16.16;66.33
46303;BME280;32029;51.358;5.628;2023-03-22T09:57:34;100473.00;;;16.14;66.70
46303;BME280;32029;51.358;5.628;2023-03-22T10:08:53;100467.31;;;16.28;65.94
46303;BME280;32029;51.358;5.628;2023-03-22T10:11:45;100464.66;;;16.33;65.85
46303;BME280;32029;51.358;5.628;2023-03-22T10:14:36;100460.59;;;16.35;65.94
46303;BME280;32029;51.358;5.628;2023-03-22T10:17:12;100448.63;;;16.23;65.38
46303;BME280;32029;51.358;5.628;2023-03-22T10:22:34;100453.34;;;16.23;65.68
46303;BME280;32029;51.358;5.628;2023-03-22T10:25:05;100459.97;;;16.33;66.02
46303;BME280;32029;51.358;5.628;2023-03-22T10:27:32;100434.22;;;16.33;65.71
46303;BME280;32029;51.358;5.628;2023-03-22T10:32:47;100418.41;;;16.22;65.61
46303;BME280;32029;51.358;5.628;2023-03-22T10:35:17;100449.75;;;16.34;65.53
46303;BME280;32029;51.358;5.628;2023-03-22T10:37:47;100430.69;;;16.26;65.49
46303;BME280;32029;51.358;5.628;2023-03-22T10:40:20;100454.72;;;16.44;65.88
46303;BME280;32029;51.358;5.628;2023-03-22T10:42:53;100461.13;;;16.44;66.28
46303;BME280;32029;51.358;5.628;2023-03-22T10:45:23;100461.88;;;16.51;66.27
46303;BME280;32029;51.358;5.628;2023-03-22T10:47:59;100435.81;;;16.40;66.29
46303;BME280;32029;51.358;5.628;2023-03-22T10:50:33;100465.19;;;16.41;66.94
46303;BME280;32029;51.358;5.628;2023-03-22T10:55:31;100451.16;;;16.25;66.97
46303;BME280;32029;51.358;5.628;2023-03-22T11:00:31;100460.75;;;16.22;67.54
46303;BME280;32029;51.358;5.628;2023-03-22T11:02:59;100476.06;;;16.25;68.06
46303;BME280;32029;51.358;5.628;2023-03-22T11:05:28;100461.00;;;16.21;67.57
46303;BME280;32029;51.358;5.628;2023-03-22T11:07:56;100450.41;;;16.17;67.77
46303;BME280;32029;51.358;5.628;2023-03-22T11:10:26;100444.09;;;16.10;67.21
46303;BME280;32029;51.358;5.628;2023-03-22T11:13:09;100455.72;;;16.19;66.90
46303;BME280;32029;51.358;5.628;2023-03-22T11:15:49;100457.47;;;16.13;67.31
46303;BME280;32029;51.358;5.628;2023-03-22T11:18:17;100460.31;;;16.07;68.20
46303;BME280;32029;51.358;5.628;2023-03-22T11:21:13;100488.63;;;16.09;68.78
46303;BME280;32029;51.358;5.628;2023-03-22T11:23:49;100450.91;;;15.78;69.15
46303;BME280;32029;51.358;5.628;2023-03-22T11:26:28;100469.28;;;15.72;69.75
46303;BME280;32029;51.358;5.628;2023-03-22T11:29:12;100485.50;;;15.62;70.80
46303;BME280;32029;51.358;5.628;2023-03-22T11:31:59;100473.28;;;15.51;71.31
46303;BME280;32029;51.358;5.628;2023-03-22T11:34:28;100453.44;;;15.36;72.17
46303;BME280;32029;51.358;5.628;2023-03-22T11:36:58;100468.56;;;15.33;71.97
46303;BME280;32029;51.358;5.628;2023-03-22T11:39:27;100459.94;;;15.23;72.10
46303;BME280;32029;51.358;5.628;2023-03-22T11:41:59;100472.19;;;15.34;72.70
46303;BME280;32029;51.358;5.628;2023-03-22T11:44:33;100467.94;;;15.31;73.49
46303;BME280;32029;51.358;5.628;2023-03-22T11:47:06;100456.94;;;15.25;73.30
46303;BME280;32029;51.358;5.628;2023-03-22T11:52:11;100467.50;;;15.34;73.48
46303;BME280;32029;51.358;5.628;2023-03-22T11:54:41;100466.25;;;15.30;73.90
46303;BME280;32029;51.358;5.628;2023-03-22T11:57:27;100463.34;;;15.25;74.33
46303;BME280;32029;51.358;5.628;2023-03-22T12:00:06;100454.81;;;15.27;74.33
46303;BME280;32029;51.358;5.628;2023-03-22T12:02:42;100473.66;;;15.55;73.92
46303;BME280;32029;51.358;5.628;2023-03-22T12:05:19;100451.94;;;15.58;74.20
46303;BME280;32029;51.358;5.628;2023-03-22T12:07:54;100465.72;;;15.83;73.68
46303;BME280;32029;51.358;5.628;2023-03-22T12:10:30;100450.00;;;15.84;73.43
46303;BME280;32029;51.358;5.628;2023-03-22T12:13:14;100446.06;;;15.91;72.44
46303;BME280;32029;51.358;5.628;2023-03-22T12:15:42;100473.19;;;16.01;73.13
46303;BME280;32029;51.358;5.628;2023-03-22T12:23:19;100459.22;;;16.26;72.88
46303;BME280;32029;51.358;5.628;2023-03-22T12:31:34;100441.69;;;16.62;71.67
46303;BME280;32029;51.358;5.628;2023-03-22T12:34:10;100439.34;;;16.78;70.90
46303;BME280;32029;51.358;5.628;2023-03-22T12:36:42;100443.44;;;16.87;69.17
46303;BME280;32029;51.358;5.628;2023-03-22T12:39:32;100423.31;;;16.80;69.36
46303;BME280;32029;51.358;5.628;2023-03-22T12:42:04;100383.16;;;16.71;68.90
46303;BME280;32029;51.358;5.628;2023-03-22T12:44:39;100405.75;;;16.86;69.02
46303;BME280;32029;51.358;5.628;2023-03-22T12:47:17;100420.69;;;16.97;68.09
46303;BME280;32029;51.358;5.628;2023-03-22T12:49:59;100425.28;;;17.03;68.01
46303;BME280;32029;51.358;5.628;2023-03-22T12:52:48;100417.81;;;17.03;67.82
46303;BME280;32029;51.358;5.628;2023-03-22T12:55:29;100427.78;;;17.04;66.78
46303;BME280;32029;51.358;5.628;2023-03-22T12:57:57;100415.63;;;16.94;67.17
46303;BME280;32029;51.358;5.628;2023-03-22T13:00:38;100401.88;;;16.75;67.21
46303;BME280;32029;51.358;5.628;2023-03-22T13:05:44;100418.09;;;16.72;67.31
46303;BME280;32029;51.358;5.628;2023-03-22T13:08:12;100399.50;;;16.60;67.50
46303;BME280;32029;51.358;5.628;2023-03-22T13:21:12;100420.06;;;16.53;67.70
46303;BME280;32029;51.358;5.628;2023-03-22T13:26:48;100416.91;;;16.37;68.03
46303;BME280;32029;51.358;5.628;2023-03-22T13:29:32;100418.81;;;16.37;68.58
46303;BME280;32029;51.358;5.628;2023-03-22T13:32:06;100413.75;;;16.34;68.54
46303;BME280;32029;51.358;5.628;2023-03-22T13:34:47;100428.75;;;16.26;68.83
46303;BME280;32029;51.358;5.628;2023-03-22T13:37:31;100405.19;;;16.24;68.82
46303;BME280;32029;51.358;5.628;2023-03-22T13:40:33;100416.25;;;16.24;68.99
46303;BME280;32029;51.358;5.628;2023-03-22T13:43:28;100410.34;;;16.20;69.45
46303;BME280;32029;51.358;5.628;2023-03-22T13:54:07;100423.09;;;16.21;69.67
46303;BME280;32029;51.358;5.628;2023-03-22T13:59:18;100414.19;;;16.19;69.86
46303;BME280;32029;51.358;5.628;2023-03-22T14:04:45;100422.34;;;16.14;70.01
46303;BME280;32029;51.358;5.628;2023-03-22T14:07:24;100413.75;;;16.04;70.24
46303;BME280;32029;51.358;5.628;2023-03-22T14:10:02;100392.56;;;15.79;70.88
46303;BME280;32029;51.358;5.628;2023-03-22T14:12:48;100393.44;;;15.80;71.15
46303;BME280;32029;51.358;5.628;2023-03-22T14:15:21;100404.41;;;15.86;71.32
46303;BME280;32029;51.358;5.628;2023-03-22T14:17:54;100399.69;;;15.87;71.52
46303;BME280;32029;51.358;5.628;2023-03-22T14:20:24;100371.84;;;15.70;71.74
46303;BME280;32029;51.358;5.628;2023-03-22T14:23:10;100408.56;;;15.96;71.67
46303;BME280;32029;51.358;5.628;2023-03-22T14:25:39;100385.97;;;15.80;71.49
46303;BME280;32029;51.358;5.628;2023-03-22T14:28:07;100377.81;;;15.67;72.25
46303;BME280;32029;51.358;5.628;2023-03-22T14:30:35;100405.16;;;15.93;72.59
46303;BME280;32029;51.358;5.628;2023-03-22T14:33:12;100378.28;;;15.82;72.52
46303;BME280;32029;51.358;5.628;2023-03-22T14:35:44;100390.34;;;15.88;73.31
46303;BME280;32029;51.358;5.628;2023-03-22T14:38:18;100396.19;;;15.80;74.04
46303;BME280;32029;51.358;5.628;2023-03-22T14:40:46;100389.19;;;15.77;74.52
46303;BME280;32029;51.358;5.628;2023-03-22T14:45:46;100359.56;;;15.66;74.19
46303;BME280;32029;51.358;5.628;2023-03-22T14:48:16;100336.88;;;15.57;74.49
46303;BME280;32029;51.358;5.628;2023-03-22T14:50:51;100378.97;;;15.96;74.05
46303;BME280;32029;51.358;5.628;2023-03-22T14:53:22;100362.69;;;15.88;74.41